createdAt,value
2019-05-25T00:00:58.644Z,58.59
2019-05-25T00:01:58.662Z,58.69
2019-05-25T00:02:58.694Z,58.30
2019-05-25T00:03:58.737Z,58.59
2019-05-25T00:04:58.829Z,57.91
2019-05-25T00:05:58.806Z,58.59
2019-05-25T00:06:58.841Z,58.49
2019-05-25T00:07:58.873Z,57.81
2019-05-25T00:08:58.946Z,58.49
2019-05-25T00:09:58.945Z,58.69
2019-05-25T00:11:59.010Z,58.39
2019-05-25T00:12:59.052Z,58.49
2019-05-25T00:13:59.088Z,58.49
2019-05-25T00:15:59.144Z,58.39
2019-05-25T00:16:59.188Z,58.49
2019-05-25T00:17:59.316Z,58.59
2019-05-25T00:18:59.252Z,58.78
2019-05-25T00:19:59.288Z,58.39
2019-05-25T00:20:59.324Z,58.59
2019-05-25T00:21:59.357Z,58.59
2019-05-25T00:22:59.401Z,58.49
2019-05-25T00:24:11.720Z,58.39
2019-05-25T00:24:59.459Z,58.59
2019-05-25T00:25:59.493Z,58.39
2019-05-25T00:26:59.525Z,58.49
2019-05-25T00:27:59.564Z,58.49
2019-05-25T00:28:59.645Z,58.69
2019-05-25T00:29:59.725Z,58.56
2019-05-25T00:30:59.668Z,58.78
2019-05-25T00:31:59.726Z,59.14
2019-05-25T00:33:59.774Z,58.88
2019-05-25T00:34:59.897Z,58.95
2019-05-25T00:35:59.833Z,58.47
2019-05-25T00:36:59.866Z,58.37
2019-05-25T00:37:59.908Z,58.47
2019-05-25T00:38:59.940Z,59.05
2019-05-25T00:39:59.971Z,58.88
2019-05-25T00:41:00.032Z,58.75
2019-05-25T00:42:00.048Z,58.95
2019-05-25T00:43:00.078Z,58.78
2019-05-25T00:44:00.114Z,58.75
2019-05-25T00:45:00.155Z,58.75
2019-05-25T00:46:00.183Z,58.75
2019-05-25T00:47:00.217Z,58.75
2019-05-25T00:49:00.281Z,58.47
2019-05-25T00:50:00.313Z,58.65
2019-05-25T00:51:00.363Z,58.95
2019-05-25T00:52:00.389Z,59.14
2019-05-25T00:53:00.439Z,59.14
2019-05-25T00:54:00.466Z,59.14
2019-05-25T00:55:00.487Z,59.05
2019-05-25T00:56:00.536Z,58.65
2019-05-25T00:57:00.576Z,58.95
2019-05-25T00:58:00.628Z,58.95
2019-05-25T00:59:00.715Z,58.95
2019-05-25T01:00:00.679Z,58.85
2019-05-25T01:01:00.713Z,59.05
2019-05-25T01:02:00.737Z,58.85
2019-05-25T01:03:00.767Z,59.14
2019-05-25T01:05:00.840Z,58.85
2019-05-25T01:06:00.864Z,58.85
2019-05-25T01:07:00.903Z,58.95
2019-05-25T01:08:00.934Z,59.23
2019-05-25T01:09:00.999Z,59.05
2019-05-25T01:10:01.012Z,59.23
2019-05-25T01:12:01.087Z,59.23
2019-05-25T01:13:01.132Z,59.05
2019-05-25T01:15:01.170Z,59.14
2019-05-25T01:17:01.246Z,59.14
2019-05-25T01:18:01.284Z,59.14
2019-05-25T01:19:01.313Z,58.95
2019-05-25T01:20:01.362Z,59.33
2019-05-25T01:21:01.382Z,59.53
2019-05-25T01:23:01.483Z,59.43
2019-05-25T01:24:01.485Z,59.23
2019-05-25T01:25:01.513Z,59.33
2019-05-25T01:29:01.661Z,59.43
2019-05-25T01:30:01.826Z,59.33
2019-05-25T01:32:01.753Z,59.82
2019-05-25T01:33:01.795Z,59.82
2019-05-25T01:34:01.830Z,59.63
2019-05-25T01:35:01.867Z,59.82
2019-05-25T01:36:01.896Z,59.72
2019-05-25T01:37:01.932Z,59.82
2019-05-25T01:38:01.966Z,59.63
2019-05-25T01:39:01.996Z,59.79
2019-05-25T01:40:02.049Z,59.59
2019-05-25T01:41:02.166Z,59.79
2019-05-25T01:42:02.110Z,59.63
2019-05-25T01:43:02.146Z,59.82
2019-05-25T01:44:02.183Z,59.79
2019-05-25T01:45:02.272Z,59.89
2019-05-25T01:46:02.281Z,59.91
2019-05-25T01:47:02.268Z,59.89
2019-05-25T01:48:02.302Z,59.79
2019-05-25T01:49:02.348Z,59.59
2019-05-25T01:50:02.378Z,60.01
2019-05-25T01:51:02.417Z,59.79
2019-05-25T01:52:02.440Z,59.79
2019-05-25T01:53:02.473Z,59.89
2019-05-25T01:54:02.516Z,59.59
2019-05-25T01:55:02.553Z,59.50
2019-05-25T01:56:02.586Z,59.69
2019-05-25T01:57:02.660Z,59.59
2019-05-25T01:58:02.663Z,59.59
2019-05-25T01:59:02.684Z,59.69
2019-05-25T02:00:02.723Z,59.69
2019-05-25T02:02:02.780Z,59.59
2019-05-25T02:03:02.852Z,59.69
2019-05-25T02:04:02.850Z,59.59
2019-05-25T02:05:02.890Z,59.69
2019-05-25T02:06:02.922Z,59.50
2019-05-25T02:07:02.953Z,59.50
2019-05-25T02:08:02.986Z,59.69
2019-05-25T02:09:03.018Z,59.59
2019-05-25T02:10:03.108Z,59.59
2019-05-25T02:11:03.153Z,59.69
2019-05-25T02:12:03.133Z,59.69
2019-05-25T02:13:03.175Z,59.69
2019-05-25T02:14:03.196Z,59.50
2019-05-25T02:16:03.385Z,59.50
2019-05-25T02:17:03.338Z,59.69
2019-05-25T02:18:03.353Z,59.69
2019-05-25T02:19:03.369Z,59.69
2019-05-25T02:20:03.395Z,59.69
2019-05-25T02:21:03.778Z,59.69
2019-05-25T02:22:03.481Z,59.69
2019-05-25T02:23:03.511Z,59.69
2019-05-25T02:24:03.559Z,59.98
2019-05-25T02:25:16.920Z,59.89
2019-05-25T02:26:03.596Z,60.08
2019-05-25T02:27:03.694Z,59.98
2019-05-25T02:28:03.674Z,59.79
2019-05-25T02:30:03.743Z,60.08
2019-05-25T02:31:03.815Z,59.98
2019-05-25T02:32:03.809Z,60.08
2019-05-25T02:33:03.836Z,60.08
2019-05-25T02:34:03.876Z,60.17
2019-05-25T02:35:03.905Z,60.08
2019-05-25T02:36:03.958Z,60.27
2019-05-25T02:37:03.976Z,60.08
2019-05-25T02:38:04.004Z,59.98
2019-05-25T02:39:04.039Z,59.98
2019-05-25T02:41:04.107Z,60.27
2019-05-25T02:42:04.146Z,60.37
2019-05-25T02:43:04.347Z,60.08
2019-05-25T02:44:04.225Z,60.27
2019-05-25T02:45:04.247Z,60.27
2019-05-25T02:46:04.275Z,60.08
2019-05-25T02:48:04.355Z,59.98
2019-05-25T02:49:04.394Z,60.17
2019-05-25T02:50:04.410Z,60.17
2019-05-25T02:51:04.458Z,60.08
2019-05-25T02:52:04.489Z,60.17
2019-05-25T02:53:04.519Z,60.08
2019-05-25T02:54:04.550Z,60.57
2019-05-25T02:55:04.591Z,60.47
2019-05-25T02:56:04.638Z,60.27
2019-05-25T02:57:04.644Z,60.57
2019-05-25T02:58:04.689Z,60.17
2019-05-25T02:59:04.720Z,59.89
2019-05-25T03:00:04.767Z,60.37
2019-05-25T03:01:04.787Z,60.44
2019-05-25T03:02:05.183Z,60.27
2019-05-25T03:03:04.877Z,60.34
2019-05-25T03:04:04.893Z,60.37
2019-05-25T03:05:04.924Z,60.17
2019-05-25T03:07:04.999Z,60.27
2019-05-25T03:08:05.025Z,60.34
2019-05-25T03:09:05.071Z,60.34
2019-05-25T03:10:05.093Z,60.37
2019-05-25T03:11:05.136Z,59.95
2019-05-25T03:12:05.164Z,60.14
2019-05-25T03:13:05.206Z,60.05
2019-05-25T03:14:05.227Z,60.05
2019-05-25T03:15:05.537Z,59.95
2019-05-25T03:16:05.291Z,60.44
2019-05-25T03:17:05.336Z,60.44
2019-05-25T03:20:05.459Z,60.63
2019-05-25T03:21:05.499Z,60.82
2019-05-25T03:22:05.501Z,60.63
2019-05-25T03:23:05.536Z,60.47
2019-05-25T03:24:05.567Z,60.34
2019-05-25T03:25:05.600Z,60.34
2019-05-25T03:26:05.646Z,60.44
2019-05-25T03:27:05.666Z,60.44
2019-05-25T03:28:05.728Z,60.44
2019-05-25T03:29:05.754Z,60.44
2019-05-25T03:30:05.842Z,60.44
2019-05-25T03:31:05.836Z,60.34
2019-05-25T03:32:05.839Z,60.44
2019-05-25T03:33:05.880Z,60.44
2019-05-25T03:34:05.927Z,60.44
2019-05-25T03:35:05.949Z,60.63
2019-05-25T03:36:05.977Z,60.66
2019-05-25T03:37:06.001Z,60.63
2019-05-25T03:38:06.040Z,60.34
2019-05-25T03:39:06.069Z,60.24
2019-05-25T03:40:06.122Z,60.44
2019-05-25T03:41:06.157Z,60.44
2019-05-25T03:42:06.175Z,60.24
2019-05-25T03:43:06.211Z,60.44
2019-05-25T03:44:06.239Z,60.44
2019-05-25T03:45:06.288Z,60.44
2019-05-25T03:46:06.315Z,60.44
2019-05-25T03:47:06.448Z,60.44
2019-05-25T03:48:06.401Z,60.24
2019-05-25T03:49:06.416Z,60.34
2019-05-25T03:50:06.449Z,60.14
2019-05-25T03:51:06.489Z,60.17
2019-05-25T03:52:06.514Z,60.34
2019-05-25T03:53:06.854Z,60.24
2019-05-25T03:54:06.589Z,60.34
2019-05-25T03:55:06.636Z,60.53
2019-05-25T03:57:06.675Z,60.53
2019-05-25T03:58:06.717Z,60.44
2019-05-25T03:59:06.752Z,60.53
2019-05-25T04:01:06.816Z,60.34
2019-05-25T04:03:06.884Z,60.34
2019-05-25T04:05:07.003Z,60.44
2019-05-25T04:06:07.039Z,60.34
2019-05-25T04:07:07.021Z,60.34
2019-05-25T04:08:07.056Z,60.63
2019-05-25T04:09:07.116Z,60.63
2019-05-25T04:10:07.130Z,60.53
2019-05-25T04:11:07.157Z,60.63
2019-05-25T04:12:07.183Z,60.63
2019-05-25T04:13:07.231Z,60.63
2019-05-25T04:14:07.258Z,60.72
2019-05-25T04:15:07.282Z,60.53
2019-05-25T04:16:07.322Z,60.63
2019-05-25T04:17:07.355Z,60.44
2019-05-25T04:18:07.425Z,60.53
2019-05-25T04:19:07.437Z,60.53
2019-05-25T04:20:07.460Z,60.44
2019-05-25T04:21:07.497Z,60.53
2019-05-25T04:22:07.531Z,60.53
2019-05-25T04:23:07.556Z,60.63
2019-05-25T04:24:07.584Z,60.63
2019-05-25T04:25:07.640Z,60.63
2019-05-25T04:26:21.346Z,60.44
2019-05-25T04:27:07.748Z,60.53
2019-05-25T04:28:07.721Z,60.63
2019-05-25T04:29:07.764Z,60.63
2019-05-25T04:30:07.799Z,60.63
2019-05-25T04:31:07.819Z,60.63
2019-05-25T04:32:08.468Z,60.53
2019-05-25T04:33:07.905Z,60.53
2019-05-25T04:34:07.920Z,60.44
2019-05-25T04:35:07.959Z,60.53
2019-05-25T04:36:08.005Z,60.53
2019-05-25T04:37:08.040Z,60.53
2019-05-25T04:38:08.063Z,60.53
2019-05-25T04:39:08.095Z,60.34
2019-05-25T04:40:08.133Z,60.63
2019-05-25T04:41:08.163Z,60.63
2019-05-25T04:42:08.565Z,60.53
2019-05-25T04:43:08.244Z,60.53
2019-05-25T04:44:08.271Z,60.53
2019-05-25T04:45:08.297Z,60.63
2019-05-25T04:46:08.334Z,60.63
2019-05-25T04:47:08.397Z,60.63
2019-05-25T04:48:08.406Z,60.53
2019-05-25T04:49:08.431Z,60.44
2019-05-25T04:50:08.475Z,60.44
2019-05-25T04:51:08.495Z,60.63
2019-05-25T04:52:08.540Z,60.53
2019-05-25T04:53:08.569Z,60.53
2019-05-25T04:54:08.594Z,60.53
2019-05-25T04:55:08.811Z,60.53
2019-05-25T04:56:08.660Z,60.53
2019-05-25T04:57:08.914Z,60.53
2019-05-25T04:58:08.735Z,60.44
2019-05-25T04:59:08.767Z,60.44
2019-05-25T05:00:08.796Z,60.63
2019-05-25T05:01:08.837Z,60.63
2019-05-25T05:02:08.867Z,60.63
2019-05-25T05:03:08.899Z,60.63
2019-05-25T05:04:08.951Z,60.63
2019-05-25T05:05:08.977Z,60.44
2019-05-25T05:06:08.999Z,60.53
2019-05-25T05:07:09.039Z,60.53
2019-05-25T05:08:09.269Z,60.34
2019-05-25T05:09:09.106Z,60.63
2019-05-25T05:10:09.144Z,60.34
2019-05-25T05:11:09.174Z,60.34
2019-05-25T05:12:09.212Z,60.44
2019-05-25T05:13:09.259Z,60.44
2019-05-25T05:14:09.286Z,60.24
2019-05-25T05:15:09.330Z,60.34
2019-05-25T05:16:09.346Z,60.24
2019-05-25T05:17:09.375Z,60.44
2019-05-25T05:18:09.418Z,60.34
2019-05-25T05:19:09.437Z,60.24
2019-05-25T05:20:09.558Z,60.34
2019-05-25T05:21:09.516Z,60.44
2019-05-25T05:22:09.563Z,60.44
2019-05-25T05:23:09.581Z,60.34
2019-05-25T05:24:09.622Z,60.82
2019-05-25T05:25:10.507Z,60.72
2019-05-25T05:26:09.681Z,60.34
2019-05-25T05:27:09.723Z,60.53
2019-05-25T05:28:09.742Z,60.24
2019-05-25T05:29:09.792Z,60.24
2019-05-25T05:30:09.816Z,60.05
2019-05-25T05:31:22.649Z,60.14
2019-05-25T05:32:09.876Z,60.34
2019-05-25T05:33:09.916Z,60.27
2019-05-25T05:34:09.949Z,60.34
2019-05-25T05:35:09.981Z,60.17
2019-05-25T05:36:10.008Z,60.17
2019-05-25T05:37:10.048Z,60.05
2019-05-25T05:38:10.083Z,60.34
2019-05-25T05:39:10.119Z,59.86
2019-05-25T05:40:10.148Z,60.05
2019-05-25T05:41:10.176Z,60.05
2019-05-25T05:42:10.227Z,60.24
2019-05-25T05:43:10.249Z,60.05
2019-05-25T05:44:10.282Z,60.05
2019-05-25T05:45:10.319Z,60.14
2019-05-25T05:46:10.355Z,60.08
2019-05-25T05:47:10.684Z,59.95
2019-05-25T05:48:10.416Z,59.98
2019-05-25T05:49:10.449Z,59.79
2019-05-25T05:50:10.496Z,59.66
2019-05-25T05:51:10.526Z,59.69
2019-05-25T05:52:10.556Z,59.56
2019-05-25T05:53:10.585Z,59.86
2019-05-25T05:54:10.626Z,59.69
2019-05-25T05:55:10.674Z,59.98
2019-05-25T05:56:10.689Z,59.69
2019-05-25T05:57:12.611Z,59.50
2019-05-25T05:58:10.765Z,59.50
2019-05-25T05:59:10.795Z,59.69
2019-05-25T06:00:10.828Z,59.69
2019-05-25T06:01:10.904Z,59.50
2019-05-25T06:02:10.901Z,59.59
2019-05-25T06:03:10.938Z,59.69
2019-05-25T06:04:10.989Z,59.79
2019-05-25T06:05:10.996Z,59.79
2019-05-25T06:06:11.077Z,59.89
2019-05-25T06:07:11.068Z,59.59
2019-05-25T06:09:11.132Z,59.79
2019-05-25T06:10:11.168Z,59.79
2019-05-25T06:11:11.213Z,59.79
2019-05-25T06:12:11.235Z,59.89
2019-05-25T06:13:11.290Z,59.69
2019-05-25T06:15:11.333Z,59.79
2019-05-25T06:16:11.367Z,59.89
2019-05-25T06:17:11.424Z,59.31
2019-05-25T06:18:11.466Z,58.92
2019-05-25T06:19:11.622Z,59.50
2019-05-25T06:20:11.506Z,59.01
2019-05-25T06:21:11.551Z,58.92
2019-05-25T06:22:11.578Z,59.11
2019-05-25T06:23:12.350Z,59.21
2019-05-25T06:24:11.637Z,59.01
2019-05-25T06:25:11.686Z,59.21
2019-05-25T06:26:11.725Z,59.01
2019-05-25T06:27:26.065Z,58.82
2019-05-25T06:28:11.779Z,59.01
2019-05-25T06:29:11.813Z,58.82
2019-05-25T06:30:11.847Z,58.92
2019-05-25T06:31:11.897Z,58.92
2019-05-25T06:32:11.924Z,58.82
2019-05-25T06:33:11.953Z,59.11
2019-05-25T06:34:11.980Z,59.14
2019-05-25T06:35:12.014Z,58.75
2019-05-25T06:36:12.057Z,58.75
2019-05-25T06:37:12.149Z,58.53
2019-05-25T06:38:12.140Z,58.75
2019-05-25T06:39:12.152Z,58.85
2019-05-25T06:40:12.189Z,58.75
2019-05-25T06:41:12.226Z,58.85
2019-05-25T06:42:12.295Z,59.05
2019-05-25T06:43:12.445Z,59.05
2019-05-25T06:44:12.356Z,58.95
2019-05-25T06:45:12.411Z,58.85
2019-05-25T06:46:12.430Z,59.14
2019-05-25T06:47:12.465Z,58.75
2019-05-25T06:48:12.466Z,58.56
2019-05-25T06:49:12.506Z,58.56
2019-05-25T06:50:12.539Z,58.17
2019-05-25T06:51:12.572Z,58.37
2019-05-25T06:53:12.660Z,58.47
2019-05-25T06:54:12.670Z,58.37
2019-05-25T06:55:12.708Z,58.56
2019-05-25T06:56:12.838Z,58.56
2019-05-25T06:57:12.825Z,58.37
2019-05-25T06:58:12.812Z,58.37
2019-05-25T06:59:12.844Z,58.47
2019-05-25T07:00:13.013Z,58.47
2019-05-25T07:01:12.911Z,58.56
2019-05-25T07:02:12.988Z,58.47
2019-05-25T07:04:13.156Z,58.47
2019-05-25T07:05:13.153Z,58.65
2019-05-25T07:06:13.259Z,58.65
2019-05-25T07:07:13.166Z,58.56
2019-05-25T07:08:13.256Z,58.65
2019-05-25T07:09:13.223Z,58.65
2019-05-25T07:10:13.338Z,58.49
2019-05-25T07:11:13.586Z,58.49
2019-05-25T07:13:13.445Z,58.30
2019-05-25T07:14:13.356Z,58.39
2019-05-25T07:15:13.406Z,58.01
2019-05-25T07:16:13.424Z,58.20
2019-05-25T07:17:13.465Z,58.11
2019-05-25T07:18:13.502Z,58.11
2019-05-25T07:19:13.723Z,57.81
2019-05-25T07:20:13.599Z,58.11
2019-05-25T07:21:13.633Z,57.81
2019-05-25T07:22:13.654Z,57.91
2019-05-25T07:23:13.686Z,58.11
2019-05-25T07:24:13.809Z,58.11
2019-05-25T07:25:13.742Z,58.11
2019-05-25T07:26:13.773Z,58.20
2019-05-25T07:27:13.809Z,58.01
2019-05-25T07:28:13.849Z,58.59
2019-05-25T07:29:13.937Z,58.39
2019-05-25T07:30:13.916Z,58.49
2019-05-25T07:31:13.949Z,58.69
2019-05-25T07:32:14.016Z,58.69
2019-05-25T07:33:14.091Z,58.39
2019-05-25T07:34:14.368Z,58.49
2019-05-25T07:35:14.089Z,58.69
2019-05-25T07:36:14.274Z,58.39
2019-05-25T07:37:14.157Z,58.39
2019-05-25T07:38:14.193Z,58.39
2019-05-25T07:39:14.221Z,58.20
2019-05-25T07:40:14.263Z,58.78
2019-05-25T07:41:14.401Z,58.69
2019-05-25T07:42:14.332Z,58.49
2019-05-25T07:43:14.368Z,58.30
2019-05-25T07:44:14.471Z,58.39
2019-05-25T07:45:14.435Z,58.49
2019-05-25T07:46:17.069Z,58.49
2019-05-25T07:47:14.504Z,58.59
2019-05-25T07:48:14.541Z,58.39
2019-05-25T07:49:14.583Z,58.49
2019-05-25T07:50:14.715Z,57.81
2019-05-25T07:51:14.646Z,58.01
2019-05-25T07:53:14.823Z,58.01
2019-05-25T07:54:14.774Z,57.65
2019-05-25T07:55:14.788Z,57.62
2019-05-25T07:56:14.872Z,57.62
2019-05-25T07:57:14.855Z,58.11
2019-05-25T07:58:18.116Z,58.01
2019-05-25T07:59:14.923Z,58.14
2019-05-25T08:00:14.977Z,57.71
2019-05-25T08:01:15.008Z,58.11
2019-05-25T08:02:15.131Z,57.71
2019-05-25T08:03:15.065Z,58.04
2019-05-25T08:04:15.104Z,57.62
2019-05-25T08:05:15.137Z,58.14
2019-05-25T08:06:15.200Z,57.65
2019-05-25T08:07:15.228Z,57.75
2019-05-25T08:08:15.278Z,58.04
2019-05-25T08:09:15.284Z,57.91
2019-05-25T08:10:15.311Z,57.94
2019-05-25T08:11:15.357Z,57.94
2019-05-25T08:12:15.394Z,58.04
2019-05-25T08:13:15.413Z,57.75
2019-05-25T08:14:15.467Z,57.94
2019-05-25T08:15:15.493Z,57.75
2019-05-25T08:16:15.520Z,57.45
2019-05-25T08:17:17.158Z,57.94
2019-05-25T08:18:16.030Z,57.33
2019-05-25T08:19:16.178Z,57.36
2019-05-25T08:20:16.354Z,57.65
2019-05-25T08:22:15.731Z,57.17
2019-05-25T08:23:15.768Z,57.26
2019-05-25T08:24:15.805Z,57.36
2019-05-25T08:25:15.834Z,57.36
2019-05-25T08:26:16.232Z,57.36
2019-05-25T08:28:29.868Z,57.17
2019-05-25T08:30:16.030Z,57.45
2019-05-25T08:31:16.048Z,57.07
2019-05-25T08:32:16.106Z,57.45
2019-05-25T08:33:16.118Z,56.87
2019-05-25T08:34:16.262Z,57.07
2019-05-25T08:36:16.243Z,56.87
2019-05-25T08:37:16.275Z,57.07
2019-05-25T08:38:16.290Z,57.17
2019-05-25T08:39:16.345Z,57.07
2019-05-25T08:41:16.422Z,57.26
2019-05-25T08:42:16.432Z,57.17
2019-05-25T08:43:16.548Z,57.36
2019-05-25T08:44:16.545Z,56.59
2019-05-25T08:45:16.541Z,56.59
2019-05-25T08:46:16.681Z,56.39
2019-05-25T08:47:16.615Z,56.29
2019-05-25T08:48:16.659Z,56.59
2019-05-25T08:49:16.681Z,56.59
2019-05-25T08:50:16.716Z,56.49
2019-05-25T08:51:16.756Z,56.68
2019-05-25T08:53:17.038Z,56.49
2019-05-25T08:55:16.901Z,56.29
2019-05-25T08:56:16.931Z,56.39
2019-05-25T08:57:18.706Z,56.29
2019-05-25T08:58:17.005Z,56.49
2019-05-25T08:59:17.134Z,56.39
2019-05-25T09:00:17.065Z,56.59
2019-05-25T09:01:17.113Z,56.59
2019-05-25T09:02:17.479Z,56.59
2019-05-25T09:03:17.176Z,56.68
2019-05-25T09:05:17.375Z,56.51
2019-05-25T09:06:17.289Z,56.49
2019-05-25T09:07:17.323Z,56.59
2019-05-25T09:08:17.360Z,56.51
2019-05-25T09:09:17.502Z,56.39
2019-05-25T09:10:17.430Z,56.39
2019-05-25T09:11:17.529Z,56.59
2019-05-25T09:12:17.502Z,56.59
2019-05-25T09:13:17.858Z,56.81
2019-05-25T09:14:17.589Z,56.87
2019-05-25T09:16:17.645Z,56.29
2019-05-25T09:17:17.675Z,56.10
2019-05-25T09:18:17.711Z,56.41
2019-05-25T09:19:17.762Z,56.90
2019-05-25T09:21:17.920Z,56.23
2019-05-25T09:22:17.924Z,56.23
2019-05-25T09:23:17.888Z,56.03
2019-05-25T09:24:17.925Z,56.32
2019-05-25T09:25:18.020Z,56.23
2019-05-25T09:26:18.015Z,56.23
2019-05-25T09:28:18.074Z,56.03
2019-05-25T09:29:18.102Z,56.13
2019-05-25T09:31:18.180Z,56.32
2019-05-25T09:32:18.223Z,56.23
2019-05-25T09:33:18.251Z,56.03
2019-05-25T09:34:18.284Z,56.61
2019-05-25T09:35:18.329Z,56.23
2019-05-25T09:36:18.454Z,56.32
2019-05-25T09:37:18.385Z,55.93
2019-05-25T09:38:18.423Z,56.23
2019-05-25T09:39:18.463Z,56.61
2019-05-25T09:40:18.492Z,56.23
2019-05-25T09:42:18.571Z,56.61
2019-05-25T09:43:18.709Z,56.23
2019-05-25T09:44:18.660Z,56.13
2019-05-25T09:45:18.802Z,56.03
2019-05-25T09:46:18.869Z,55.83
2019-05-25T09:47:18.745Z,55.64
2019-05-25T09:48:18.973Z,55.93
2019-05-25T09:49:18.817Z,55.74
2019-05-25T09:50:18.910Z,55.74
2019-05-25T09:51:18.896Z,55.74
2019-05-25T09:52:19.034Z,55.74
2019-05-25T09:53:19.024Z,55.74
2019-05-25T09:54:19.001Z,55.83
2019-05-25T09:55:19.139Z,55.83
2019-05-25T09:56:19.178Z,55.83
2019-05-25T09:57:19.107Z,56.13
2019-05-25T09:58:19.145Z,55.83
2019-05-25T09:59:20.572Z,56.13
2019-05-25T10:00:19.563Z,55.93
2019-05-25T10:01:19.256Z,55.83
2019-05-25T10:02:19.449Z,55.93
2019-05-25T10:03:19.323Z,55.96
2019-05-25T10:04:19.355Z,55.74
2019-05-25T10:05:19.509Z,55.74
2019-05-25T10:06:19.478Z,55.93
2019-05-25T10:07:19.477Z,55.74
2019-05-25T10:08:19.625Z,55.93
2019-05-25T10:09:19.536Z,55.87
2019-05-25T10:10:19.574Z,55.54
2019-05-25T10:14:19.844Z,55.67
2019-05-25T10:15:19.840Z,55.74
2019-05-25T10:16:19.850Z,55.74
2019-05-25T10:17:20.108Z,55.64
2019-05-25T10:18:19.867Z,55.74
2019-05-25T10:19:19.923Z,55.83
2019-05-25T10:20:19.939Z,55.87
2019-05-25T10:23:20.705Z,55.74
2019-05-25T10:24:20.165Z,55.74
2019-05-25T10:25:20.185Z,55.83
2019-05-25T10:26:22.867Z,55.64
2019-05-25T10:27:20.193Z,55.74
2019-05-25T10:29:35.571Z,55.93
2019-05-25T10:30:20.314Z,55.93
2019-05-25T10:31:20.340Z,55.96
2019-05-25T10:32:20.374Z,55.83
2019-05-25T10:33:21.849Z,55.83
2019-05-25T10:34:20.474Z,56.15
2019-05-25T10:35:20.514Z,56.13
2019-05-25T10:36:20.511Z,56.15
2019-05-25T10:37:20.551Z,55.93
2019-05-25T10:38:20.612Z,55.74
2019-05-25T10:39:20.633Z,55.83
2019-05-25T10:40:20.680Z,55.77
2019-05-25T10:41:20.891Z,55.83
2019-05-25T10:44:20.870Z,55.87
2019-05-25T10:45:20.836Z,55.77
2019-05-25T10:46:21.189Z,55.77
2019-05-25T10:47:20.907Z,55.83
2019-05-25T10:48:20.967Z,55.77
2019-05-25T10:49:20.992Z,55.96
2019-05-25T10:50:21.019Z,55.77
2019-05-25T10:51:21.051Z,55.57
2019-05-25T10:52:21.105Z,55.57
2019-05-25T10:53:21.135Z,55.57
2019-05-25T10:54:21.210Z,55.38
2019-05-25T10:55:21.212Z,55.77
2019-05-25T10:56:21.228Z,55.77
2019-05-25T10:57:21.266Z,55.87
2019-05-25T10:58:21.313Z,55.47
2019-05-25T10:59:21.346Z,55.87
2019-05-25T11:00:21.378Z,55.67
2019-05-25T11:01:21.418Z,55.77
2019-05-25T11:02:21.456Z,55.57
2019-05-25T11:03:21.489Z,55.67
2019-05-25T11:04:22.230Z,55.77
2019-05-25T11:05:21.559Z,55.47
2019-05-25T11:06:21.593Z,55.47
2019-05-25T11:07:21.632Z,55.47
2019-05-25T11:08:21.916Z,55.67
2019-05-25T11:09:21.728Z,55.57
2019-05-25T11:10:21.764Z,55.77
2019-05-25T11:11:21.783Z,55.77
2019-05-25T11:12:21.815Z,55.77
2019-05-25T11:14:21.886Z,55.67
2019-05-25T11:15:21.923Z,55.67
2019-05-25T11:16:21.963Z,55.57
2019-05-25T11:17:22.103Z,55.57
2019-05-25T11:18:22.032Z,55.38
2019-05-25T11:19:24.128Z,55.57
2019-05-25T11:20:22.137Z,55.67
2019-05-25T11:22:22.187Z,55.47
2019-05-25T11:23:22.320Z,55.77
2019-05-25T11:24:22.352Z,55.57
2019-05-25T11:25:22.282Z,55.38
2019-05-25T11:26:22.328Z,55.67
2019-05-25T11:27:22.376Z,55.28
2019-05-25T11:28:22.389Z,55.57
2019-05-25T11:29:22.442Z,55.57
2019-05-25T11:30:22.569Z,55.57
2019-05-25T11:31:22.541Z,55.18
2019-05-25T11:32:22.579Z,55.38
2019-05-25T11:33:22.729Z,55.18
2019-05-25T11:34:22.608Z,55.41
2019-05-25T11:35:22.651Z,55.47
2019-05-25T11:36:22.682Z,55.28
2019-05-25T11:37:22.843Z,55.41
2019-05-25T11:38:22.756Z,55.38
2019-05-25T11:39:22.794Z,55.47
2019-05-25T11:40:22.828Z,55.28
2019-05-25T11:41:22.867Z,55.28
2019-05-25T11:42:22.909Z,55.28
2019-05-25T11:43:22.939Z,55.38
2019-05-25T11:44:22.975Z,55.57
2019-05-25T11:45:23.018Z,55.60
2019-05-25T11:47:23.186Z,55.60
2019-05-25T11:48:23.119Z,55.47
2019-05-25T11:49:23.199Z,55.50
2019-05-25T11:50:23.198Z,55.50
2019-05-25T11:51:23.296Z,55.50
2019-05-25T11:52:23.262Z,55.60
2019-05-25T11:53:23.301Z,55.50
2019-05-25T11:55:23.376Z,55.50
2019-05-25T11:56:23.420Z,55.69
2019-05-25T11:57:23.451Z,55.50
2019-05-25T11:58:23.598Z,55.50
2019-05-25T11:59:23.548Z,55.50
2019-05-25T12:00:25.711Z,55.50
2019-05-25T12:01:23.595Z,55.60
2019-05-25T12:02:23.637Z,55.50
2019-05-25T12:03:23.674Z,55.50
2019-05-25T12:04:23.714Z,55.60
2019-05-25T12:05:23.848Z,55.47
2019-05-25T12:06:23.777Z,55.50
2019-05-25T12:07:23.828Z,55.50
2019-05-25T12:08:23.855Z,55.41
2019-05-25T12:09:23.885Z,55.60
2019-05-25T12:10:23.938Z,55.21
2019-05-25T12:11:23.959Z,55.57
2019-05-25T12:12:23.990Z,55.38
2019-05-25T12:13:24.033Z,55.50
2019-05-25T12:14:24.069Z,55.60
2019-05-25T12:15:24.107Z,55.18
2019-05-25T12:17:24.187Z,55.21
2019-05-25T12:18:24.209Z,55.41
2019-05-25T12:19:24.248Z,55.18
2019-05-25T12:20:24.290Z,55.31
2019-05-25T12:21:24.320Z,55.11
2019-05-25T12:22:24.370Z,55.21
2019-05-25T12:23:24.499Z,55.31
2019-05-25T12:24:24.445Z,55.41
2019-05-25T12:25:24.465Z,55.41
2019-05-25T12:26:24.502Z,55.31
2019-05-25T12:27:24.647Z,55.47
2019-05-25T12:28:24.575Z,55.41
2019-05-25T12:29:24.745Z,55.41
2019-05-25T12:30:39.389Z,55.11
2019-05-25T12:31:24.699Z,55.21
2019-05-25T12:32:24.724Z,55.31
2019-05-25T12:33:24.815Z,55.21
2019-05-25T12:34:24.907Z,55.41
2019-05-25T12:35:24.840Z,55.21
2019-05-25T12:36:24.872Z,55.31
2019-05-25T12:37:24.923Z,55.11
2019-05-25T12:38:24.947Z,55.11
2019-05-25T12:39:26.755Z,55.21
2019-05-25T12:40:25.013Z,55.21
2019-05-25T12:41:25.067Z,55.18
2019-05-25T12:42:25.099Z,55.31
2019-05-25T12:43:25.125Z,55.41
2019-05-25T12:45:25.195Z,55.11
2019-05-25T12:46:25.240Z,55.31
2019-05-25T12:47:25.276Z,55.41
2019-05-25T12:48:25.310Z,55.41
2019-05-25T12:50:25.380Z,55.41
2019-05-25T12:51:25.431Z,55.31
2019-05-25T12:52:25.456Z,55.21
2019-05-25T12:53:25.640Z,55.41
2019-05-25T12:54:25.681Z,55.31
2019-05-25T12:55:25.569Z,55.41
2019-05-25T12:57:25.745Z,55.21
2019-05-25T12:58:25.679Z,55.60
2019-05-25T12:59:25.712Z,55.60
2019-05-25T13:00:25.764Z,55.31
2019-05-25T13:01:25.803Z,55.02
2019-05-25T13:02:25.828Z,54.82
2019-05-25T13:03:28.303Z,54.75
2019-05-25T13:04:25.904Z,54.66
2019-05-25T13:05:34.174Z,54.75
2019-05-25T13:06:26.285Z,54.17
2019-05-25T13:07:26.015Z,53.88
2019-05-25T13:08:26.280Z,54.29
2019-05-25T13:09:26.087Z,53.71
2019-05-25T13:10:26.229Z,53.42
2019-05-25T13:11:26.181Z,53.52
2019-05-25T13:12:26.206Z,52.94
2019-05-25T13:13:26.252Z,53.25
2019-05-25T13:14:26.296Z,52.57
2019-05-25T13:15:26.330Z,52.47
2019-05-25T13:16:26.424Z,52.96
2019-05-25T13:17:26.404Z,52.40
2019-05-25T13:18:26.447Z,52.69
2019-05-25T13:19:26.575Z,52.50
2019-05-25T13:20:26.515Z,51.92
2019-05-25T13:21:26.558Z,51.72
2019-05-25T13:22:26.599Z,51.55
2019-05-25T13:23:26.741Z,51.45
2019-05-25T13:24:26.683Z,51.65
2019-05-25T13:25:26.718Z,51.55
2019-05-25T13:26:26.757Z,51.26
2019-05-25T13:27:26.789Z,51.48
2019-05-25T13:28:26.838Z,50.70
2019-05-25T13:29:26.879Z,50.80
2019-05-25T13:30:26.954Z,50.21
2019-05-25T13:31:27.074Z,50.53
2019-05-25T13:32:27.341Z,50.41
2019-05-25T13:33:27.045Z,50.14
2019-05-25T13:34:27.168Z,50.14
2019-05-25T13:35:27.121Z,49.76
2019-05-25T13:36:27.157Z,50.04
2019-05-25T13:37:27.188Z,49.46
2019-05-25T13:38:27.231Z,49.17
2019-05-25T13:39:27.283Z,49.17
2019-05-25T13:40:27.316Z,49.00
2019-05-25T13:41:27.367Z,48.90
2019-05-25T13:42:27.402Z,49.00
2019-05-25T13:43:27.436Z,49.00
2019-05-25T13:44:27.489Z,48.83
2019-05-25T13:45:27.524Z,48.73
2019-05-25T13:46:27.589Z,48.54
2019-05-25T13:47:27.608Z,48.14
2019-05-25T13:48:27.649Z,48.24
2019-05-25T13:49:27.716Z,48.44
2019-05-25T13:50:27.746Z,47.95
2019-05-25T13:51:27.798Z,47.88
2019-05-25T13:52:27.830Z,47.58
2019-05-25T13:53:47.284Z,47.78